Time;durP1;ratioP1;P1;durP2;ratioP2;P2;SDS_P1;SDS_P2;PMS_P1;PMS_P2;Temp;Humidity;BMP_temperature;BMP_pressure;BME280_temperature;BME280_humidity;BME280_pressure;Samples;Min_cycle;Max_cycle;Signal;HPM_P1;HPM_P2
2021/09/08 00:00:21;;;;;;;13.30;6.70;;;;;;;10.18;72.06;99823.40;111133;1202;60868;-22
2021/09/08 00:02:53;;;;;;;14.00;7.40;;;;;;;10.70;70.44;99819.41;111181;1202;60970;-22
2021/09/08 00:05:21;;;;;;;15.40;8.20;;;;;;;10.71;70.09;99820.55;111189;1202;73355;-22
2021/09/08 00:07:49;;;;;;;14.50;6.40;;;;;;;10.47;70.16;99823.21;111164;1202;75576;-22
2021/09/08 00:10:38;;;;;;;15.10;6.80;;;;;;;10.15;71.23;99824.15;111113;1195;73269;-22
2021/09/08 00:13:22;;;;;;;15.90;7.50;;;;;;;9.86;71.53;99823.08;111144;1202;60930;-22
2021/09/08 00:15:51;;;;;;;20.00;8.10;;;;;;;9.59;72.26;99822.58;111179;1202;60826;-24
2021/09/08 00:18:20;;;;;;;13.10;5.60;;;;;;;9.41;72.90;99822.92;111167;1202;75067;-24
2021/09/08 00:20:48;;;;;;;14.40;7.30;;;;;;;9.83;72.79;99821.91;111159;1202;74743;-23
2021/09/08 00:23:17;;;;;;;15.30;8.00;;;;;;;10.26;71.59;99821.51;111164;1202;74193;-21
2021/09/08 00:25:45;;;;;;;15.00;7.00;;;;;;;10.26;71.11;99821.15;111152;1202;60934;-23
2021/09/08 00:28:14;;;;;;;11.30;5.70;;;;;;;10.05;71.48;99822.19;111140;1203;60848;-24
2021/09/08 00:30:42;;;;;;;14.70;6.00;;;;;;;9.76;72.64;99830.02;111170;1202;75132;-24
2021/09/08 00:33:11;;;;;;;10.60;4.50;;;;;;;9.53;73.29;99827.84;111134;1201;75632;-24
2021/09/08 00:35:43;;;;;;;10.90;6.30;;;;;;;9.38;74.25;99832.42;111145;1202;73793;-24
2021/09/08 00:38:12;;;;;;;14.00;6.80;;;;;;;9.87;73.54;99827.88;111175;1195;61028;-23
2021/09/08 00:40:41;;;;;;;12.70;7.40;;;;;;;10.23;71.50;99826.68;111124;1202;60861;-21
2021/09/08 00:43:10;;;;;;;12.50;6.80;;;;;;;10.14;71.65;99824.01;111222;1200;73811;-23
2021/09/08 00:45:41;;;;;;;19.00;7.20;;;;;;;9.92;72.04;99824.25;111174;1202;75377;-24
2021/09/08 00:48:11;;;;;;;10.80;5.40;;;;;;;9.65;73.03;99826.02;111183;1203;73197;-22
2021/09/08 00:50:39;;;;;;;12.90;6.40;;;;;;;9.44;73.64;99826.51;111178;1201;61478;-22
2021/09/08 00:53:08;;;;;;;16.40;7.10;;;;;;;9.37;74.59;99825.73;111204;1202;60826;-22
2021/09/08 00:55:39;;;;;;;12.10;6.50;;;;;;;9.88;73.40;99824.70;111105;1202;74535;-22
2021/09/08 00:58:08;;;;;;;13.40;7.20;;;;;;;10.16;72.03;99827.07;111212;1203;75648;-23
2021/09/08 01:00:38;;;;;;;14.90;7.00;;;;;;;9.99;72.46;99826.23;111141;1202;74085;-24
2021/09/08 01:03:09;;;;;;;15.30;6.60;;;;;;;9.72;73.22;99829.24;111183;1203;60762;-24
2021/09/08 01:05:41;;;;;;;11.80;6.80;;;;;;;9.48;74.19;99831.10;111156;1203;60881;-23
2021/09/08 01:08:13;;;;;;;17.40;6.30;;;;;;;9.37;74.71;99831.77;111154;1200;75379;-23
2021/09/08 01:10:45;;;;;;;20.10;7.30;;;;;;;9.91;73.26;99832.11;111159;1202;75467;-21
2021/09/08 01:13:17;;;;;;;16.20;7.00;;;;;;;10.19;71.98;99831.68;111136;1202;73825;-22
2021/09/08 01:15:56;;;;;;;15.70;6.60;;;;;;;10.04;72.12;99829.91;111127;1202;60836;-22
2021/09/08 01:18:46;;;;;;;14.70;5.90;;;;;;;9.72;73.10;99830.60;111119;1202;61198;-22
2021/09/08 01:21:14;;;;;;;12.80;6.10;;;;;;;9.48;73.83;99825.90;111181;1202;74691;-22
2021/09/08 01:23:42;;;;;;;12.50;5.50;;;;;;;9.29;74.47;99825.39;111198;1201;75663;-22
2021/09/08 01:26:11;;;;;;;13.50;5.80;;;;;;;9.68;74.02;99824.61;111108;1202;73842;-22
2021/09/08 01:28:39;;;;;;;12.00;7.30;;;;;;;10.08;72.31;99822.51;111155;1203;60922;-22
2021/09/08 01:31:08;;;;;;;13.50;6.20;;;;;;;10.08;72.23;99827.39;111182;1202;60895;-22
2021/09/08 01:33:37;;;;;;;15.60;7.20;;;;;;;9.86;72.50;99827.44;111223;1202;75737;-22
2021/09/08 01:36:05;;;;;;;12.40;6.10;;;;;;;9.60;73.41;99828.27;111169;1203;74533;-22
2021/09/08 01:38:33;;;;;;;12.20;4.80;;;;;;;9.33;73.76;99827.56;111099;1202;73872;-22
2021/09/08 01:41:01;;;;;;;12.00;5.20;;;;;;;9.13;74.94;99829.71;111153;1202;63026;-22
2021/09/08 01:43:31;;;;;;;11.30;5.30;;;;;;;9.58;74.29;99831.13;111157;1202;60911;-22
2021/09/08 01:46:00;;;;;;;14.50;5.60;;;;;;;10.07;72.53;99827.11;111158;1202;75593;-22
2021/09/08 01:48:28;;;;;;;13.30;6.70;;;;;;;10.07;72.03;99824.16;111143;1202;74688;-23
2021/09/08 01:51:00;;;;;;;9.70;4.90;;;;;;;9.83;72.36;99819.96;111139;1202;74008;-22
2021/09/08 01:53:31;;;;;;;11.10;6.10;;;;;;;9.53;73.42;99817.23;111144;1200;61005;-22
2021/09/08 01:55:59;;;;;;;12.00;6.00;;;;;;;9.26;73.78;99818.77;111187;1200;60855;-22
2021/09/08 01:58:28;;;;;;;12.20;4.20;;;;;;;9.04;74.35;99815.81;111137;1201;75137;-22
2021/09/08 02:00:56;;;;;;;7.70;3.90;;;;;;;9.47;74.10;99813.84;111146;1202;75419;-22
2021/09/08 02:03:26;;;;;;;13.40;6.20;;;;;;;9.93;72.85;99812.05;111169;1203;73271;-22
2021/09/08 02:05:54;;;;;;;10.80;6.00;;;;;;;9.94;72.38;99808.20;111151;1204;60904;-22
2021/09/08 02:08:23;;;;;;;9.90;5.60;;;;;;;9.69;72.82;99810.02;111166;1204;60826;-23
2021/09/08 02:10:51;;;;;;;12.00;5.90;;;;;;;9.44;73.13;99807.27;111180;1202;74156;-22
2021/09/08 02:13:20;;;;;;;11.30;5.50;;;;;;;9.12;74.38;99807.90;111130;1203;76200;-22
2021/09/08 02:15:56;;;;;;;12.60;5.20;;;;;;;8.90;75.51;99808.93;111089;1202;73149;-22
2021/09/08 02:18:44;;;;;;;14.40;5.70;;;;;;;9.38;74.55;99811.48;111050;1201;62868;-23
2021/09/08 02:21:12;;;;;;;11.00;6.10;;;;;;;9.73;73.08;99810.77;111133;1203;60916;-22
2021/09/08 02:23:41;;;;;;;9.40;5.30;;;;;;;9.65;73.04;99815.98;111174;1202;74988;-22
2021/09/08 02:26:09;;;;;;;7.30;3.60;;;;;;;9.40;73.41;99815.17;111117;1202;75530;-22
2021/09/08 02:28:40;;;;;;;10.50;5.40;;;;;;;9.07;74.53;99816.69;111176;1202;74191;-22
2021/09/08 02:31:08;;;;;;;11.20;4.50;;;;;;;8.89;74.74;99820.92;111135;1202;61404;-22
2021/09/08 02:33:37;;;;;;;11.90;5.30;;;;;;;9.19;74.82;99825.45;111195;1201;60804;-22
2021/09/08 02:36:05;;;;;;;11.70;5.50;;;;;;;9.50;73.76;99823.70;111156;1202;75145;-22
2021/09/08 02:38:34;;;;;;;10.50;3.60;;;;;;;9.44;73.23;99821.80;111166;1202;72996;-22
2021/09/08 02:41:06;;;;;;;10.10;5.20;;;;;;;9.22;73.88;99816.84;111148;1202;73078;-22
2021/09/08 02:43:34;;;;;;;4.80;2.60;;;;;;;8.94;74.51;99816.64;111144;1202;60911;-22
2021/09/08 02:46:03;;;;;;;8.30;3.30;;;;;;;8.70;76.07;99814.83;111159;1201;61643;-22
2021/09/08 02:48:32;;;;;;;9.20;5.10;;;;;;;9.05;75.76;99810.77;111150;1200;75256;-22
2021/09/08 02:51:12;;;;;;;9.30;5.00;;;;;;;9.42;73.96;99815.05;111044;1198;75441;-22
2021/09/08 02:53:40;;;;;;;15.40;5.10;;;;;;;9.31;74.01;99807.95;111178;1202;72362;-22
2021/09/08 02:56:08;;;;;;;10.20;4.90;;;;;;;9.10;74.36;99806.34;111067;1203;61541;-22
2021/09/08 02:58:37;;;;;;;9.90;4.30;;;;;;;8.82;75.14;99806.28;111197;1201;61528;-22
2021/09/08 03:01:05;;;;;;;16.90;4.40;;;;;;;8.62;75.72;99810.96;111120;1201;75090;-22
2021/09/08 03:03:36;;;;;;;9.70;4.40;;;;;;;9.06;75.19;99811.06;111163;1202;74641;-22
2021/09/08 03:06:05;;;;;;;12.70;5.50;;;;;;;9.44;73.64;99812.45;111148;1202;74007;-22
2021/09/08 03:08:33;;;;;;;19.40;5.40;;;;;;;9.38;73.03;99818.02;111110;1202;60942;-22
2021/09/08 03:11:01;;;;;;;11.10;4.40;;;;;;;9.14;73.50;99819.90;111095;1202;60842;-23
2021/09/08 03:13:31;;;;;;;9.70;4.80;;;;;;;8.84;73.93;99821.76;111123;1202;74896;-23
2021/09/08 03:16:05;;;;;;;8.30;4.80;;;;;;;8.54;74.28;99821.15;111126;1201;75546;-22
2021/09/08 03:18:34;;;;;;;9.80;3.60;;;;;;;8.30;74.89;99823.25;111134;1202;72955;-21
2021/09/08 03:21:02;;;;;;;14.20;4.30;;;;;;;8.68;75.21;99822.88;111191;1203;60881;-22
2021/09/08 03:23:32;;;;;;;13.20;5.30;;;;;;;9.22;73.88;99825.98;111181;1203;60826;-22
2021/09/08 03:26:01;;;;;;;11.40;5.20;;;;;;;9.25;73.23;99828.73;111150;1202;73947;-22
2021/09/08 03:28:29;;;;;;;6.70;3.90;;;;;;;9.04;73.29;99828.64;111137;1201;75772;-22
2021/09/08 03:30:58;;;;;;;9.00;4.10;;;;;;;8.76;73.91;99830.58;111168;1202;71343;-22
2021/09/08 03:33:27;;;;;;;9.50;4.50;;;;;;;8.47;74.47;99829.52;111150;1202;60893;-22
2021/09/08 03:35:55;;;;;;;9.70;4.00;;;;;;;8.24;75.16;99828.95;111107;1201;60868;-22
2021/09/08 03:38:24;;;;;;;11.00;4.00;;;;;;;8.61;75.46;99829.02;111181;1201;75418;-22
2021/09/08 03:40:53;;;;;;;10.80;5.20;;;;;;;9.12;74.09;99828.73;111176;1201;74381;-22
2021/09/08 03:43:22;;;;;;;10.80;4.50;;;;;;;9.14;73.75;99829.98;111127;1203;73185;-22
2021/09/08 03:46:10;;;;;;;8.60;4.30;;;;;;;8.89;74.52;99829.92;111158;1201;61687;-22
2021/09/08 03:48:39;;;;;;;5.90;3.40;;;;;;;8.63;75.18;99828.77;111213;1201;60855;-22
2021/09/08 03:51:10;;;;;;;10.90;4.50;;;;;;;8.40;76.10;99829.05;111139;1202;74900;-22
2021/09/08 03:53:38;;;;;;;6.60;3.50;;;;;;;8.24;77.13;99832.45;111126;1201;75535;-23
2021/09/08 03:56:07;;;;;;;8.70;4.40;;;;;;;8.70;76.26;99829.50;111231;1202;74222;-22
2021/09/08 03:58:37;;;;;;;7.80;4.60;;;;;;;9.15;74.68;99829.55;111169;1202;60886;-23
2021/09/08 04:01:05;;;;;;;9.30;4.60;;;;;;;9.20;73.99;99830.79;111247;1203;60846;-24
2021/09/08 04:03:34;;;;;;;7.60;3.40;;;;;;;9.06;73.98;99831.98;111164;1202;74102;-19
2021/09/08 04:06:03;;;;;;;5.60;3.80;;;;;;;8.80;74.91;99833.58;111170;1202;75382;-22
2021/09/08 04:08:32;;;;;;;7.50;3.80;;;;;;;8.66;75.62;99832.19;111175;1202;72305;-21
2021/09/08 04:11:00;;;;;;;7.10;3.70;;;;;;;9.16;75.19;99830.01;111188;1201;60896;-24
2021/09/08 04:13:29;;;;;;;11.20;4.30;;;;;;;9.81;73.00;99835.40;111172;1202;60803;-20
2021/09/08 04:16:01;;;;;;;9.60;5.00;;;;;;;9.92;72.32;99833.45;111192;1201;75274;-25
2021/09/08 04:18:29;;;;;;;8.50;4.60;;;;;;;9.79;72.21;99841.95;111243;1202;75418;-24
2021/09/08 04:20:57;;;;;;;14.90;4.60;;;;;;;9.62;72.67;99838.55;111142;1202;72386;-23
2021/09/08 04:23:26;;;;;;;8.20;4.40;;;;;;;9.54;72.95;99836.98;111137;1202;60848;-24
2021/09/08 04:25:54;;;;;;;7.60;3.00;;;;;;;9.45;73.06;99834.45;111113;1202;61813;-24
2021/09/08 04:28:23;;;;;;;9.40;3.80;;;;;;;9.96;72.77;99833.90;111187;1203;73514;-24
2021/09/08 04:30:51;;;;;;;10.60;4.70;;;;;;;10.54;70.68;99829.68;111173;1202;75701;-23
2021/09/08 04:33:20;;;;;;;10.70;4.90;;;;;;;10.60;70.29;99832.95;111233;1202;74098;-26
2021/09/08 04:35:49;;;;;;;7.80;4.10;;;;;;;10.42;70.42;99830.35;111165;1202;60798;-25
2021/09/08 04:38:17;;;;;;;7.10;3.90;;;;;;;10.25;70.72;99830.26;111185;1203;60936;-24
2021/09/08 04:40:47;;;;;;;7.90;4.70;;;;;;;9.94;71.45;99828.66;111154;1201;75117;-23
2021/09/08 04:43:16;;;;;;;8.60;3.90;;;;;;;9.84;72.35;99839.20;111127;1195;75668;-24
2021/09/08 04:45:45;;;;;;;7.50;3.60;;;;;;;10.30;71.79;99838.21;111122;1202;73744;-24
2021/09/08 04:48:14;;;;;;;8.30;4.50;;;;;;;10.65;70.07;99839.51;111112;1202;60790;-24
2021/09/08 04:50:42;;;;;;;8.80;4.30;;;;;;;10.79;69.89;99839.46;111214;1202;61928;-23
2021/09/08 04:53:10;;;;;;;8.30;4.40;;;;;;;10.80;69.78;99843.52;111146;1202;75147;-23
2021/09/08 04:55:39;;;;;;;5.90;3.40;;;;;;;10.76;69.47;99849.73;111140;1201;75535;-23
2021/09/08 04:58:08;;;;;;;9.40;3.30;;;;;;;10.66;69.98;99852.46;111182;1201;74030;-23
2021/09/08 05:00:38;;;;;;;6.00;3.10;;;;;;;10.48;71.11;99857.02;111139;1203;62529;-23
2021/09/08 05:03:06;;;;;;;6.90;3.50;;;;;;;10.92;69.96;99854.36;111159;1202;60831;-23
2021/09/08 05:05:35;;;;;;;9.70;3.50;;;;;;;11.32;68.17;99854.88;111187;1202;75220;-23
2021/09/08 05:08:03;;;;;;;7.00;4.10;;;;;;;11.16;68.68;99859.49;111137;1201;75507;-23
2021/09/08 05:10:44;;;;;;;11.60;3.90;;;;;;;11.02;69.28;99862.16;111127;1202;74053;-23
2021/09/08 05:13:12;;;;;;;11.90;4.10;;;;;;;10.73;70.02;99859.85;111154;1198;60913;-23
2021/09/08 05:15:42;;;;;;;10.00;4.30;;;;;;;10.64;70.92;99859.04;111169;1202;60868;-21
2021/09/08 05:18:11;;;;;;;5.10;2.60;;;;;;;10.57;71.11;99859.89;111142;1201;76690;-22
2021/09/08 05:20:40;;;;;;;7.20;3.50;;;;;;;10.59;71.44;99862.68;111161;1202;74617;-22
2021/09/08 05:23:09;;;;;;;9.30;4.00;;;;;;;11.26;69.41;99858.23;111163;1201;74328;-22
2021/09/08 05:25:37;;;;;;;8.00;3.70;;;;;;;11.80;68.46;99856.58;111129;1202;61574;-22
2021/09/08 05:28:05;;;;;;;7.30;3.50;;;;;;;11.97;67.91;99857.44;111151;1202;61806;-22
2021/09/08 05:30:34;;;;;;;20.60;3.90;;;;;;;11.94;67.72;99857.99;111145;1202;74931;-23
2021/09/08 05:33:02;;;;;;;5.60;3.30;;;;;;;11.95;68.14;99854.14;111143;1202;75752;-22
2021/09/08 05:35:31;;;;;;;5.10;3.30;;;;;;;11.87;68.42;99856.30;111163;1194;72818;-22
2021/09/08 05:37:59;;;;;;;6.80;4.40;;;;;;;11.79;69.47;99856.34;111185;1202;61529;-22
2021/09/08 05:40:27;;;;;;;5.30;2.50;;;;;;;11.83;69.56;99857.44;111171;1202;60955;-22
2021/09/08 05:42:55;;;;;;;5.70;2.90;;;;;;;12.34;68.64;99854.56;111144;1202;75196;-23
2021/09/08 05:45:25;;;;;;;7.40;3.50;;;;;;;12.89;67.24;99854.22;111202;1202;75399;-22
2021/09/08 05:47:53;;;;;;;7.10;3.00;;;;;;;12.92;66.68;99852.53;111180;1203;73011;-22
2021/09/08 05:50:21;;;;;;;6.80;3.60;;;;;;;12.62;67.52;99856.45;111165;1202;60970;-22
2021/09/08 05:52:50;;;;;;;10.50;3.80;;;;;;;12.61;68.08;99853.08;111129;1200;60865;-22
2021/09/08 05:55:20;;;;;;;8.90;4.30;;;;;;;12.54;68.52;99851.96;111160;1201;73959;-22
2021/09/08 05:57:52;;;;;;;10.00;4.20;;;;;;;12.48;69.02;99853.16;111150;1202;75524;-22
2021/09/08 06:00:20;;;;;;;7.10;3.00;;;;;;;12.46;69.95;99854.34;111149;1202;72355;-22
2021/09/08 06:02:49;;;;;;;24.30;4.70;;;;;;;12.96;68.88;99850.86;111156;1202;60846;-22
2021/09/08 06:05:18;;;;;;;5.10;3.30;;;;;;;13.26;67.49;99848.86;111123;1203;60825;-22
2021/09/08 06:07:46;;;;;;;7.70;3.10;;;;;;;13.36;67.24;99848.92;111157;1202;74986;-22
2021/09/08 06:10:18;;;;;;;11.20;3.90;;;;;;;13.25;67.60;99847.21;111143;1202;74709;-21
2021/09/08 06:12:48;;;;;;;8.60;4.50;;;;;;;13.12;68.14;99843.86;111164;1201;74229;-21
2021/09/08 06:15:17;;;;;;;8.80;4.50;;;;;;;12.98;68.61;99843.93;111175;1195;60906;-21
2021/09/08 06:17:45;;;;;;;7.20;3.50;;;;;;;12.68;69.02;99842.70;111173;1202;61585;-21
2021/09/08 06:20:14;;;;;;;6.70;3.90;;;;;;;12.90;69.38;99845.39;111147;1195;74972;-21
2021/09/08 06:22:42;;;;;;;6.20;4.00;;;;;;;13.51;67.43;99848.61;111137;1201;74636;-24
2021/09/08 06:25:11;;;;;;;6.00;3.70;;;;;;;13.82;66.68;99847.66;111202;1201;73821;-24
2021/09/08 06:27:39;;;;;;;7.80;4.40;;;;;;;14.00;66.31;99845.89;111155;1202;61578;-23
2021/09/08 06:30:09;;;;;;;6.50;4.20;;;;;;;13.80;66.26;99845.80;111112;1202;61085;-22
2021/09/08 06:32:37;;;;;;;8.20;4.30;;;;;;;13.74;66.42;99842.96;111097;1196;75252;-22
2021/09/08 06:35:06;;;;;;;6.80;4.00;;;;;;;13.71;67.30;99845.11;111143;1201;74641;-22
2021/09/08 06:37:35;;;;;;;5.90;3.80;;;;;;;13.78;66.77;99844.85;111167;1195;74196;-22
2021/09/08 06:40:04;;;;;;;9.80;3.80;;;;;;;13.81;67.16;99844.59;111158;1202;63095;-22
2021/09/08 06:42:33;;;;;;;9.20;4.00;;;;;;;14.50;65.45;99842.90;111154;1202;61632;-21
2021/09/08 06:45:18;;;;;;;8.00;4.20;;;;;;;15.22;63.72;99842.54;111163;1202;74114;-21
2021/09/08 06:47:46;;;;;;;12.40;4.20;;;;;;;15.39;62.37;99840.34;111117;1201;75597;-22
2021/09/08 06:50:15;;;;;;;8.40;4.50;;;;;;;15.24;62.36;99843.77;111142;1203;72818;-22
2021/09/08 06:52:44;;;;;;;9.30;4.60;;;;;;;15.26;63.03;99843.04;111154;1202;60871;-22
2021/09/08 06:55:12;;;;;;;8.20;4.80;;;;;;;15.30;62.54;99843.89;111113;1203;60959;-23
2021/09/08 06:57:41;;;;;;;10.70;4.80;;;;;;;15.37;62.16;99846.15;111182;1201;74015;-23
2021/09/08 07:00:10;;;;;;;7.30;4.20;;;;;;;15.42;62.94;99844.99;111171;1203;75522;-23
2021/09/08 07:02:38;;;;;;;19.20;5.00;;;;;;;15.47;62.09;99843.27;111126;1202;74049;-22
2021/09/08 07:05:08;;;;;;;10.70;4.10;;;;;;;15.67;62.41;99847.99;111157;1202;62034;-22
2021/09/08 07:07:37;;;;;;;8.20;4.50;;;;;;;15.88;61.56;99844.73;111099;1203;60883;-22
2021/09/08 07:10:06;;;;;;;8.80;4.60;;;;;;;16.00;61.16;99848.89;111195;1202;74062;-22
2021/09/08 07:12:35;;;;;;;7.00;4.20;;;;;;;16.08;61.13;99851.17;111091;1198;74618;-23
2021/09/08 07:15:04;;;;;;;11.00;4.60;;;;;;;16.19;60.36;99853.30;111166;1202;73207;-22
2021/09/08 07:17:34;;;;;;;9.50;4.80;;;;;;;16.15;60.21;99853.70;110991;1203;60923;-22
2021/09/08 07:20:03;;;;;;;7.00;4.20;;;;;;;16.13;60.68;99854.79;111176;1203;61474;-22
2021/09/08 07:22:31;;;;;;;8.20;4.50;;;;;;;16.05;61.04;99850.91;111084;1202;75071;-22
2021/09/08 07:24:59;;;;;;;7.80;4.20;;;;;;;16.19;60.97;99853.36;111169;1195;74720;-23
2021/09/08 07:27:28;;;;;;;7.70;3.80;;;;;;;16.16;60.65;99853.80;111151;1201;73951;-22
2021/09/08 07:29:56;;;;;;;9.10;4.60;;;;;;;16.15;61.06;99851.59;111172;1202;61287;-22
2021/09/08 07:32:25;;;;;;;7.70;4.70;;;;;;;16.15;60.64;99851.20;111122;1202;60986;-22
2021/09/08 07:34:58;;;;;;;8.60;4.20;;;;;;;16.29;61.10;99853.64;111182;1202;74140;-22
2021/09/08 07:37:27;;;;;;;;;;;;;;;16.51;58.92;99852.71;111161;1201;74982;-22
2021/09/08 07:39:57;;;;;;;8.90;4.70;;;;;;;16.59;58.70;99852.77;111130;1202;73315;-22
2021/09/08 07:42:26;;;;;;;10.70;4.70;;;;;;;16.78;58.14;99854.14;111164;1202;60932;-22
2021/09/08 07:44:55;;;;;;;7.70;4.10;;;;;;;16.95;59.45;99853.80;111157;1202;61547;-22
2021/09/08 07:47:23;;;;;;;9.70;4.50;;;;;;;17.18;56.57;99852.00;111131;1202;74303;-22
2021/09/08 07:49:52;;;;;;;8.20;4.90;;;;;;;17.41;56.94;99850.31;111135;1202;75628;-22
2021/09/08 07:52:21;;;;;;;10.30;5.00;;;;;;;17.64;55.85;99853.67;111208;1202;74151;-22
2021/09/08 07:54:49;;;;;;;7.80;4.50;;;;;;;17.75;55.82;99854.75;111128;1202;60862;-22
2021/09/08 07:57:17;;;;;;;23.20;5.30;;;;;;;17.97;54.11;99854.14;111173;1202;60931;-22
2021/09/08 07:59:46;;;;;;;9.20;4.10;;;;;;;18.21;53.02;99852.97;111237;1202;74351;-21
2021/09/08 08:02:15;;;;;;;7.90;4.40;;;;;;;18.35;53.31;99853.58;111203;1202;74216;-22
2021/09/08 08:04:44;;;;;;;8.90;4.70;;;;;;;18.48;53.42;99854.64;111151;1202;73286;-22
2021/09/08 08:07:12;;;;;;;11.20;4.60;;;;;;;18.66;51.85;99854.63;111119;1202;60884;-22
2021/09/08 08:09:42;;;;;;;8.50;4.50;;;;;;;18.87;50.66;99855.43;111172;1202;60873;-20
2021/09/08 08:12:11;;;;;;;12.90;4.60;;;;;;;19.04;50.58;99856.73;111145;1195;74933;-21
2021/09/08 08:14:39;;;;;;;7.40;3.90;;;;;;;18.95;50.83;99860.48;111191;1202;75710;-22
2021/09/08 08:17:07;;;;;;;9.00;4.60;;;;;;;18.82;51.84;99862.48;111119;1202;73893;-22
2021/09/08 08:19:36;;;;;;;8.90;4.80;;;;;;;19.05;51.86;99861.36;111175;1201;60864;-22
2021/09/08 08:22:05;;;;;;;10.90;5.00;;;;;;;19.30;52.10;99860.42;111154;1202;60830;-21
2021/09/08 08:24:33;;;;;;;5.90;3.60;;;;;;;19.45;50.51;99851.43;111196;1202;73116;-21
2021/09/08 08:27:02;;;;;;;8.50;4.90;;;;;;;19.39;48.78;99852.33;111160;1201;74617;-21
2021/09/08 08:29:30;;;;;;;8.40;5.20;;;;;;;19.50;49.01;99853.13;111181;1202;74068;-23
2021/09/08 08:31:59;;;;;;;26.80;5.90;;;;;;;19.60;48.44;99849.96;111188;1202;60944;-23
2021/09/08 08:34:27;;;;;;;28.50;5.10;;;;;;;19.71;49.21;99848.24;111170;1201;60966;-22
2021/09/08 08:36:56;;;;;;;9.30;4.50;;;;;;;19.64;47.94;99849.20;111171;1202;75045;-21
2021/09/08 08:39:24;;;;;;;8.90;4.30;;;;;;;19.66;48.49;99848.15;111166;1201;74524;-22
2021/09/08 08:41:53;;;;;;;11.20;4.20;;;;;;;19.68;46.95;99845.73;111091;1203;72765;-21
2021/09/08 08:44:25;;;;;;;8.30;4.20;;;;;;;19.97;45.49;99849.38;111134;1202;60878;-21
2021/09/08 08:46:54;;;;;;;5.00;3.90;;;;;;;20.24;45.77;99851.66;111150;1197;60861;-21
2021/09/08 08:49:24;;;;;;;7.50;3.80;;;;;;;20.38;44.90;99850.59;111140;1202;75088;-21
2021/09/08 08:51:52;;;;;;;7.90;4.50;;;;;;;20.52;44.66;99852.44;111208;1202;74268;-21
2021/09/08 08:54:21;;;;;;;6.30;4.30;;;;;;;20.80;43.70;99856.28;111184;1201;73943;-21
2021/09/08 08:56:51;;;;;;;13.40;4.90;;;;;;;21.04;44.58;99851.61;111164;1202;60852;-22
2021/09/08 08:59:19;;;;;;;7.30;4.20;;;;;;;21.27;42.27;99847.50;111008;1202;62340;-22
2021/09/08 09:01:47;;;;;;;8.40;4.90;;;;;;;21.32;43.74;99848.33;111157;1202;73894;-22
2021/09/08 09:04:17;;;;;;;8.70;4.30;;;;;;;21.40;41.05;99846.36;111147;1202;74346;-21
2021/09/08 09:06:50;;;;;;;9.60;4.70;;;;;;;21.66;40.60;99844.78;111149;1202;74009;-21
2021/09/08 09:09:19;;;;;;;9.00;4.80;;;;;;;21.84;40.36;99844.39;111039;1202;61173;-22
2021/09/08 09:11:49;;;;;;;6.60;4.30;;;;;;;21.81;39.44;99847.16;111227;1201;61692;-22
2021/09/08 09:14:18;;;;;;;10.30;4.50;;;;;;;21.89;40.77;99848.38;111186;1202;73716;-22
2021/09/08 09:16:47;;;;;;;10.20;5.30;;;;;;;21.82;40.32;99841.02;111140;1196;72601;-22
2021/09/08 09:19:16;;;;;;;7.80;4.20;;;;;;;21.95;40.26;99845.91;111168;1201;74002;-22
2021/09/08 09:21:45;;;;;;;12.00;4.50;;;;;;;22.20;39.57;99840.52;111180;1202;61455;-22
2021/09/08 09:24:16;;;;;;;29.20;5.60;;;;;;;22.19;40.43;99837.98;111196;1197;60853;-22
2021/09/08 09:26:44;;;;;;;9.60;4.80;;;;;;;22.37;40.32;99838.77;111163;1201;75477;-22
2021/09/08 09:29:16;;;;;;;9.70;4.20;;;;;;;22.40;40.71;99832.52;111183;1202;76085;-22
2021/09/08 09:31:53;;;;;;;5.70;3.80;;;;;;;22.38;40.09;99831.63;111051;1203;73084;-22
2021/09/08 09:34:24;;;;;;;6.00;4.30;;;;;;;22.47;41.04;99830.30;111056;1202;60851;-22
2021/09/08 09:36:57;;;;;;;9.70;5.20;;;;;;;22.68;39.15;99824.93;111144;1195;60919;-22
2021/09/08 09:39:32;;;;;;;7.50;4.30;;;;;;;22.68;38.97;99830.41;111168;1202;74131;-22
2021/09/08 09:42:10;;;;;;;9.40;4.90;;;;;;;22.82;39.12;99830.47;111114;1203;74329;-22
2021/09/08 09:44:42;;;;;;;6.50;4.20;;;;;;;22.88;39.36;99832.79;111037;1203;73007;-22
2021/09/08 09:47:10;;;;;;;6.80;4.70;;;;;;;22.81;39.21;99827.42;111132;1202;60852;-22
2021/09/08 09:49:40;;;;;;;6.90;4.80;;;;;;;22.60;39.24;99825.90;111193;1202;61426;-22
2021/09/08 09:52:08;;;;;;;12.10;5.10;;;;;;;22.69;39.65;99826.71;111114;1202;74409;-22
2021/09/08 09:54:36;;;;;;;7.50;4.20;;;;;;;22.86;39.62;99819.07;111104;1196;74914;-22
2021/09/08 09:57:05;;;;;;;8.50;4.70;;;;;;;22.85;39.54;99816.70;111166;1201;72763;-22
2021/09/08 09:59:35;;;;;;;7.60;4.80;;;;;;;22.79;39.68;99821.19;111014;1202;60997;-22
2021/09/08 10:02:03;;;;;;;11.20;5.20;;;;;;;22.57;40.40;99824.81;111176;1202;61063;-22
2021/09/08 10:04:32;;;;;;;8.30;4.30;;;;;;;22.62;40.47;99822.17;111182;1202;75192;-22
2021/09/08 10:07:00;;;;;;;7.90;4.60;;;;;;;22.96;39.53;99821.62;111159;1196;74515;-22
2021/09/08 10:09:29;;;;;;;7.20;4.80;;;;;;;23.00;41.01;99809.58;111119;1200;73992;-22
2021/09/08 10:11:57;;;;;;;7.50;4.60;;;;;;;23.14;40.46;99812.83;111117;1202;61788;-22
2021/09/08 10:14:29;;;;;;;8.20;4.60;;;;;;;23.36;40.42;99815.48;111131;1202;60951;-22
2021/09/08 10:17:02;;;;;;;12.80;5.10;;;;;;;23.68;40.18;99815.95;111169;1200;75886;-24
2021/09/08 10:19:30;;;;;;;7.40;5.30;;;;;;;23.83;38.73;99813.52;111160;1202;74600;-24
2021/09/08 10:22:09;;;;;;;6.60;4.30;;;;;;;23.69;38.99;99812.72;111201;1202;73013;-24
2021/09/08 10:24:45;;;;;;;7.50;5.50;;;;;;;23.62;40.19;99807.02;111169;1195;60925;-23
2021/09/08 10:27:28;;;;;;;9.20;5.00;;;;;;;23.72;38.80;99807.35;111074;1204;61359;-24
2021/09/08 10:29:56;;;;;;;9.10;5.20;;;;;;;23.80;39.06;99802.10;111179;1202;75280;-24
2021/09/08 10:32:24;;;;;;;8.00;4.20;;;;;;;23.86;39.07;99804.02;111156;1201;75442;-23
2021/09/08 10:34:53;;;;;;;6.80;4.80;;;;;;;23.72;38.80;99803.06;111161;1202;73817;-24
2021/09/08 10:37:22;;;;;;;12.40;5.30;;;;;;;23.64;38.74;99799.52;111132;1202;60811;-23
2021/09/08 10:39:51;;;;;;;9.60;5.80;;;;;;;23.86;38.73;99794.48;111169;1196;61521;-24
2021/09/08 10:42:19;;;;;;;7.80;4.70;;;;;;;23.69;39.88;99795.48;111121;1196;74581;-23
2021/09/08 10:45:19;;;;;;;11.10;5.80;;;;;;;23.88;38.38;99795.88;111134;1204;74199;-24
2021/09/08 10:47:49;;;;;;;9.60;4.40;;;;;;;23.87;38.08;99798.01;111106;1202;72946;-24
2021/09/08 10:50:35;;;;;;;8.00;5.40;;;;;;;23.71;38.50;99795.93;111216;1201;60864;-23
2021/09/08 10:53:30;;;;;;;9.60;5.70;;;;;;;23.90;38.00;99791.20;111169;1202;60932;-24
2021/09/08 10:55:58;;;;;;;9.10;5.90;;;;;;;24.13;37.89;99796.60;111172;1202;75213;-22
2021/09/08 10:58:53;;;;;;;6.90;5.30;;;;;;;24.35;37.75;99793.73;111219;1202;75603;-24
2021/09/08 11:01:23;;;;;;;10.50;5.80;;;;;;;24.19;38.38;99784.23;111139;1202;75028;-24
2021/09/08 11:03:53;;;;;;;7.10;4.90;;;;;;;23.54;39.31;99782.14;111105;1202;60974;-23
2021/09/08 11:06:45;;;;;;;6.70;5.10;;;;;;;23.33;39.34;99785.58;111187;1202;61528;-24
2021/09/08 11:09:17;;;;;;;8.80;4.90;;;;;;;23.41;40.77;99782.45;111093;1196;75172;-24
2021/09/08 11:11:52;;;;;;;9.20;5.10;;;;;;;23.28;40.20;99780.62;111196;1195;73007;-25
2021/09/08 11:14:42;;;;;;;6.90;5.10;;;;;;;22.94;41.20;99781.64;111180;1202;73776;-24
2021/09/08 11:17:31;;;;;;;7.20;5.80;;;;;;;22.74;39.80;99781.39;111075;1202;60862;-24
2021/09/08 11:20:25;;;;;;;7.30;5.10;;;;;;;22.74;40.28;99785.15;111126;1203;62724;-24
2021/09/08 11:23:14;;;;;;;7.90;5.30;;;;;;;22.61;41.20;99784.67;111161;1202;75163;-24
2021/09/08 11:25:44;;;;;;;7.60;5.60;;;;;;;22.69;41.78;99785.30;111175;1202;74892;-22
2021/09/08 11:28:13;;;;;;;6.90;5.00;;;;;;;22.61;41.55;99785.39;111165;1202;74515;-24
2021/09/08 11:30:44;;;;;;;8.90;5.40;;;;;;;22.50;41.97;99790.63;111197;1202;60894;-24
2021/09/08 11:33:14;;;;;;;10.00;5.40;;;;;;;22.68;42.86;99790.08;111114;1198;60830;-24
2021/09/08 11:35:53;;;;;;;8.00;4.50;;;;;;;22.82;41.34;99784.35;111173;1204;75188;-24
2021/09/08 11:38:26;;;;;;;11.80;5.40;;;;;;;22.76;39.92;99786.62;111132;1202;75690;-24